createdAt,value
2022-12-03T00:01:07.239Z,8.60
2022-12-03T00:04:49.053Z,8.60
2022-12-03T00:08:30.859Z,8.60
2022-12-03T00:12:12.643Z,8.60
2022-12-03T00:15:54.318Z,8.70
2022-12-03T00:19:36.029Z,8.70
2022-12-03T00:23:17.730Z,8.70
2022-12-03T00:26:59.383Z,8.70
2022-12-03T00:30:41.075Z,8.80
2022-12-03T00:34:25.001Z,8.70
2022-12-03T00:38:06.648Z,8.80
2022-12-03T00:41:48.584Z,8.80
2022-12-03T00:45:30.219Z,8.70
2022-12-03T00:49:11.869Z,8.70
2022-12-03T00:52:53.670Z,8.70
2022-12-03T00:56:35.332Z,8.70
2022-12-03T01:00:17.085Z,8.70
2022-12-03T01:04:18.391Z,8.70
2022-12-03T01:08:00.134Z,8.70
2022-12-03T01:11:42.071Z,8.70
2022-12-03T01:15:23.722Z,8.70
2022-12-03T01:19:05.646Z,8.70
2022-12-03T01:22:48.429Z,8.70
2022-12-03T01:26:30.131Z,8.70
2022-12-03T01:30:12.409Z,8.70
2022-12-03T01:33:55.492Z,8.70
2022-12-03T01:37:37.191Z,8.80
2022-12-03T01:41:18.872Z,8.70
2022-12-03T01:45:00.749Z,8.80
2022-12-03T01:48:42.396Z,8.80
2022-12-03T01:52:27.676Z,8.80
2022-12-03T01:56:09.478Z,8.80
2022-12-03T01:59:51.322Z,8.80
2022-12-03T02:03:34.180Z,8.80
2022-12-03T02:07:18.682Z,8.80
2022-12-03T02:11:01.716Z,8.70
2022-12-03T02:14:43.536Z,8.80
2022-12-03T02:18:25.207Z,8.70
2022-12-03T02:22:25.809Z,8.70
2022-12-03T02:26:07.435Z,8.70
2022-12-03T02:29:49.084Z,8.70
2022-12-03T02:33:31.253Z,8.70
2022-12-03T02:37:17.115Z,8.70
2022-12-03T02:40:59.651Z,8.70
2022-12-03T02:44:41.587Z,8.70
2022-12-03T02:48:41.856Z,8.70
2022-12-03T02:52:23.615Z,8.70
2022-12-03T02:56:05.450Z,8.70
2022-12-03T02:59:47.080Z,8.70
2022-12-03T03:03:30.544Z,8.60
2022-12-03T03:07:12.172Z,8.70
2022-12-03T03:10:53.822Z,8.60
2022-12-03T03:14:35.680Z,8.60
2022-12-03T03:18:17.354Z,8.60
2022-12-03T03:21:59.588Z,8.60
2022-12-03T03:25:42.504Z,8.60
2022-12-03T03:29:24.148Z,8.60
2022-12-03T03:33:07.103Z,8.60
2022-12-03T03:36:48.858Z,8.50
2022-12-03T03:40:30.569Z,8.60
2022-12-03T03:44:12.471Z,8.50
2022-12-03T03:47:54.099Z,8.50
2022-12-03T03:51:35.774Z,8.50
2022-12-03T03:55:19.044Z,8.40
2022-12-03T03:59:00.722Z,8.50
2022-12-03T04:02:44.565Z,8.50
2022-12-03T04:06:26.794Z,8.40
2022-12-03T04:10:28.638Z,8.40
2022-12-03T04:14:10.271Z,8.40
2022-12-03T04:18:10.855Z,8.40
2022-12-03T04:22:12.142Z,8.40
2022-12-03T04:26:12.505Z,8.40
2022-12-03T04:29:54.142Z,8.40
2022-12-03T04:33:54.379Z,8.40
2022-12-03T08:58:47.404Z,8.50
2022-12-03T09:02:31.526Z,8.50
2022-12-03T09:06:13.187Z,8.50
2022-12-03T09:09:54.831Z,8.60
2022-12-03T09:13:36.492Z,8.60
2022-12-03T09:17:18.135Z,8.70
2022-12-03T09:20:59.782Z,8.70
2022-12-03T09:24:41.419Z,8.70
2022-12-03T09:28:23.334Z,8.70
2022-12-03T09:32:05.048Z,8.70
2022-12-03T09:35:46.774Z,8.80
2022-12-03T09:39:28.431Z,8.80
2022-12-03T09:43:10.950Z,8.80
2022-12-03T09:46:52.578Z,8.90
2022-12-03T09:50:34.295Z,8.90
2022-12-03T09:54:21.518Z,9.00
2022-12-03T09:58:06.208Z,9.10
2022-12-03T10:01:47.989Z,9.10
2022-12-03T10:05:29.712Z,9.20
2022-12-03T10:09:11.861Z,9.20
2022-12-03T10:12:53.587Z,9.30
2022-12-03T10:16:36.065Z,9.30
2022-12-03T10:20:18.302Z,9.30
2022-12-03T10:24:15.200Z,9.30
2022-12-03T10:27:58.140Z,9.40
2022-12-03T10:31:39.924Z,9.40
2022-12-03T10:35:22.530Z,9.40
2022-12-03T10:39:11.551Z,9.40
2022-12-03T10:42:54.006Z,9.40
2022-12-03T10:46:35.750Z,9.40
2022-12-03T10:50:18.830Z,9.40
2022-12-03T10:54:00.587Z,9.40
2022-12-03T10:57:45.519Z,9.50
2022-12-03T11:01:27.835Z,9.60
2022-12-03T11:05:13.707Z,9.60
2022-12-03T11:09:01.383Z,9.60
2022-12-03T11:13:05.544Z,9.60
2022-12-03T11:16:48.034Z,9.60
2022-12-03T11:20:33.286Z,9.60
2022-12-03T11:24:16.234Z,9.60
2022-12-03T11:28:13.187Z,9.70
2022-12-03T11:31:54.814Z,9.80
2022-12-03T11:35:37.387Z,9.80
2022-12-03T11:39:39.015Z,9.90
2022-12-03T11:43:40.685Z,9.90
2022-12-03T11:47:22.454Z,9.90
2022-12-03T11:51:04.178Z,10.00
2022-12-03T11:54:45.790Z,10.00
2022-12-03T11:58:28.274Z,10.00
2022-12-03T12:02:19.744Z,10.00
2022-12-03T12:06:08.386Z,10.00
2022-12-03T12:09:54.517Z,10.10
2022-12-03T12:13:37.448Z,10.10
2022-12-03T12:17:32.093Z,10.20
2022-12-03T12:21:32.693Z,10.20
2022-12-03T12:25:29.719Z,10.30
2022-12-03T12:29:11.384Z,10.30
2022-12-03T12:32:53.773Z,10.30
2022-12-03T12:36:35.409Z,10.40
2022-12-03T12:40:17.711Z,10.40
2022-12-03T12:43:59.539Z,10.40
2022-12-03T12:47:47.640Z,10.30
2022-12-03T12:51:29.427Z,10.30
2022-12-03T12:55:12.267Z,10.30
2022-12-03T12:58:54.077Z,10.30
2022-12-03T13:02:45.657Z,10.40
2022-12-03T13:06:28.156Z,10.40
2022-12-03T13:10:21.844Z,10.40
2022-12-03T13:14:12.584Z,10.50
2022-12-03T13:17:54.269Z,10.60
2022-12-03T13:21:37.352Z,10.60
2022-12-03T13:29:41.127Z,10.60
2022-12-03T13:33:28.477Z,10.60
2022-12-03T13:37:18.919Z,10.50
2022-12-03T13:41:01.840Z,10.60
2022-12-03T13:44:45.629Z,10.60
2022-12-03T13:48:28.351Z,10.60
2022-12-03T13:52:10.899Z,10.60
2022-12-03T13:56:01.172Z,10.60
2022-12-03T13:59:42.871Z,10.70
2022-12-03T14:03:24.564Z,10.70
2022-12-03T14:07:06.196Z,10.70
2022-12-03T14:10:47.839Z,10.60
2022-12-03T14:14:29.480Z,10.60
2022-12-03T14:18:11.178Z,10.60
2022-12-03T14:21:52.912Z,10.70
2022-12-03T14:25:34.546Z,10.70
2022-12-03T14:29:16.188Z,10.60
2022-12-03T14:32:57.884Z,10.60
2022-12-03T14:36:40.232Z,10.60
2022-12-03T14:40:22.384Z,10.60
2022-12-03T14:44:04.253Z,10.50
2022-12-03T14:47:45.898Z,10.50
2022-12-03T14:51:27.551Z,10.50
2022-12-03T14:55:09.276Z,10.40
2022-12-03T14:58:51.176Z,10.40
2022-12-03T15:02:33.188Z,10.40
2022-12-03T15:06:14.926Z,10.40
2022-12-03T15:09:56.976Z,10.40
2022-12-03T15:13:38.864Z,10.40
2022-12-03T15:17:29.537Z,10.40
2022-12-03T15:21:13.137Z,10.40
2022-12-03T15:24:54.947Z,10.40
2022-12-03T15:28:36.585Z,10.40
2022-12-03T15:32:18.227Z,10.30
2022-12-03T15:35:59.892Z,10.30
2022-12-03T15:39:48.117Z,10.20
2022-12-03T15:43:30.440Z,10.20
2022-12-03T15:47:12.148Z,10.10
2022-12-03T15:50:53.786Z,10.00
2022-12-03T15:54:35.423Z,10.00
2022-12-03T15:58:17.093Z,9.90
2022-12-03T16:01:59.043Z,9.90
2022-12-03T16:05:40.786Z,9.80
2022-12-03T16:09:27.115Z,9.80
2022-12-03T16:13:09.367Z,9.80
2022-12-03T16:16:51.046Z,9.80
2022-12-03T16:20:32.685Z,9.80
2022-12-03T16:24:14.340Z,9.80
2022-12-03T16:27:56.545Z,9.80
2022-12-03T16:31:38.312Z,9.70
2022-12-03T16:35:19.996Z,9.70
2022-12-03T16:39:01.663Z,9.70
2022-12-03T16:42:43.331Z,9.70
2022-12-03T16:46:27.972Z,9.60
2022-12-03T16:50:30.607Z,9.60
2022-12-03T16:54:12.307Z,9.60
2022-12-03T16:57:54.097Z,9.60
2022-12-03T17:01:36.303Z,9.60
2022-12-03T17:05:17.968Z,9.60
2022-12-03T17:09:00.802Z,9.60
2022-12-03T17:13:08.349Z,9.60
2022-12-03T17:16:44.053Z,9.50
2022-12-03T17:20:25.782Z,9.50
2022-12-03T17:24:22.719Z,9.40
2022-12-03T17:28:04.543Z,9.40
2022-12-03T17:31:46.358Z,9.40
2022-12-03T17:35:28.637Z,9.40
2022-12-03T17:39:10.505Z,9.40
2022-12-03T17:42:52.229Z,9.30
2022-12-03T17:46:36.236Z,9.30
2022-12-03T17:50:18.038Z,9.30
2022-12-03T17:53:59.675Z,9.30
2022-12-03T17:57:42.680Z,9.30
2022-12-03T18:01:24.418Z,9.30
2022-12-03T18:05:06.940Z,9.40
2022-12-03T18:09:09.753Z,9.30
2022-12-03T18:12:51.389Z,9.40
2022-12-03T18:16:33.148Z,9.40
2022-12-03T18:20:16.101Z,9.40
2022-12-03T18:23:59.340Z,9.40
2022-12-03T18:27:41.272Z,9.40
2022-12-03T18:31:23.014Z,9.40
2022-12-03T18:35:04.874Z,9.40
2022-12-03T18:38:50.890Z,9.40
2022-12-03T18:42:32.581Z,9.40
2022-12-03T18:46:45.022Z,9.40
2022-12-03T18:50:16.603Z,9.40
2022-12-03T18:53:58.259Z,9.40
2022-12-03T18:57:40.157Z,9.40
2022-12-03T19:01:22.287Z,9.40
2022-12-03T19:05:04.146Z,9.40
2022-12-03T19:08:46.229Z,9.50
2022-12-03T19:12:28.028Z,9.40
2022-12-03T19:16:09.898Z,9.40
2022-12-03T19:19:52.223Z,9.40
2022-12-03T19:23:34.083Z,9.40
2022-12-03T19:27:15.806Z,9.50
2022-12-03T19:30:58.842Z,9.40
2022-12-03T19:34:40.511Z,9.40
2022-12-03T19:38:22.464Z,9.40
2022-12-03T19:42:04.326Z,9.40
2022-12-03T19:45:46.029Z,9.40
2022-12-03T19:49:28.059Z,9.40
2022-12-03T19:53:09.685Z,9.40
2022-12-03T19:56:51.406Z,9.30
2022-12-03T20:00:34.034Z,9.20
2022-12-03T20:04:15.905Z,9.20
2022-12-03T20:07:59.794Z,9.20
2022-12-03T20:11:41.779Z,9.10
2022-12-03T20:15:23.480Z,9.00
2022-12-03T20:19:06.942Z,8.90
2022-12-03T20:22:48.567Z,8.90
2022-12-03T20:26:30.210Z,8.80
2022-12-03T20:30:12.127Z,8.70
2022-12-03T20:33:55.270Z,8.70
2022-12-03T20:37:40.000Z,8.60
2022-12-03T20:41:21.839Z,8.60
2022-12-03T20:45:03.618Z,8.50
2022-12-03T20:48:47.577Z,8.50
2022-12-03T20:52:29.322Z,8.40
2022-12-03T20:56:11.052Z,8.40
2022-12-03T20:59:54.504Z,8.30
2022-12-03T21:03:36.419Z,8.40
2022-12-03T21:07:18.154Z,8.30
2022-12-03T21:10:59.915Z,8.30
2022-12-03T21:14:41.623Z,8.30
2022-12-03T21:18:23.417Z,8.30
2022-12-03T21:22:05.289Z,8.30
2022-12-03T21:25:46.938Z,8.30
2022-12-03T21:29:28.660Z,8.30
2022-12-03T21:33:10.399Z,8.30
2022-12-03T21:36:52.110Z,8.30
2022-12-03T21:40:35.020Z,8.30
2022-12-03T21:44:16.715Z,8.30
2022-12-03T21:47:58.714Z,8.20
2022-12-03T21:51:40.523Z,8.30
2022-12-03T21:55:22.165Z,8.30
2022-12-03T21:59:04.082Z,8.30
2022-12-03T22:02:45.811Z,8.20
2022-12-03T22:06:27.483Z,8.30
2022-12-03T22:10:09.699Z,8.30
2022-12-03T22:13:51.606Z,8.20
2022-12-03T22:17:34.982Z,8.20
2022-12-03T22:21:17.466Z,8.20
2022-12-03T22:24:59.140Z,8.10
2022-12-03T22:28:45.395Z,8.20
2022-12-03T22:32:27.308Z,8.10
2022-12-03T22:36:16.201Z,8.10
2022-12-03T22:40:01.600Z,8.20
2022-12-03T22:43:43.742Z,8.20
2022-12-03T22:47:25.651Z,8.10
2022-12-03T22:51:20.426Z,8.10
2022-12-03T22:55:02.065Z,8.10
2022-12-03T22:58:43.835Z,8.10
2022-12-03T23:02:25.510Z,8.10
2022-12-03T23:06:11.028Z,8.00
2022-12-03T23:09:53.337Z,8.00
2022-12-03T23:13:35.438Z,8.00
2022-12-03T23:17:17.062Z,8.00
2022-12-03T23:20:58.982Z,7.90
2022-12-03T23:24:40.654Z,7.90
2022-12-03T23:28:22.646Z,7.90
2022-12-03T23:32:04.351Z,7.90
2022-12-03T23:35:46.086Z,7.90
2022-12-03T23:39:27.971Z,7.90
2022-12-03T23:43:09.671Z,7.80
2022-12-03T23:46:51.623Z,7.80
2022-12-03T23:50:34.824Z,7.80
2022-12-03T23:54:16.530Z,7.80
2022-12-03T23:57:58.754Z,7.70
